createdAt,value
2023-04-08T00:02:17.213Z,39.87
2023-04-08T00:04:44.373Z,40.77
2023-04-08T00:07:11.629Z,39.67
2023-04-08T00:09:39.013Z,40.33
2023-04-08T00:12:06.404Z,42.77
2023-04-08T00:14:33.400Z,42.90
2023-04-08T00:17:00.474Z,42.87
2023-04-08T00:19:27.527Z,42.93
2023-04-08T00:21:54.502Z,38.37
2023-04-08T00:24:21.552Z,38.87
2023-04-08T00:26:48.508Z,39.57
2023-04-08T00:29:15.572Z,40.30
2023-04-08T00:31:43.076Z,40.50
2023-04-08T00:34:10.088Z,40.00
2023-04-08T00:36:37.125Z,39.43
2023-04-08T00:39:05.486Z,39.83
2023-04-08T00:41:35.888Z,42.40
2023-04-08T00:44:04.374Z,40.43
2023-04-08T00:46:36.322Z,42.10
2023-04-08T00:49:03.452Z,41.63
2023-04-08T00:51:31.389Z,38.87
2023-04-08T00:54:00.557Z,40.37
2023-04-08T00:56:27.888Z,38.07
2023-04-08T00:58:55.759Z,38.40
2023-04-08T01:01:46.341Z,38.87
2023-04-08T01:04:34.547Z,39.87
2023-04-08T01:07:19.201Z,39.27
2023-04-08T01:09:50.456Z,40.67
2023-04-08T01:12:29.568Z,40.63
2023-04-08T01:15:11.989Z,33.53
2023-04-08T01:17:40.664Z,41.43
2023-04-08T01:20:10.423Z,39.40
2023-04-08T01:22:58.518Z,41.70
2023-04-08T01:25:31.394Z,41.47
2023-04-08T01:28:02.091Z,43.60
2023-04-08T01:30:31.212Z,41.47
2023-04-08T01:32:59.906Z,40.77
2023-04-08T01:35:27.892Z,41.37
2023-04-08T01:37:56.784Z,43.77
2023-04-08T01:40:24.048Z,42.87
2023-04-08T01:42:54.699Z,45.10
2023-04-08T01:45:24.199Z,45.70
2023-04-08T01:47:53.423Z,45.33
2023-04-08T01:50:22.484Z,40.33
2023-04-08T01:52:53.761Z,46.83
2023-04-08T01:55:21.448Z,43.60
2023-04-08T01:57:52.898Z,44.83
2023-04-08T02:00:31.736Z,40.50
2023-04-08T02:03:01.049Z,39.13
2023-04-08T02:05:28.813Z,41.97
2023-04-08T02:07:55.925Z,39.47
2023-04-08T02:10:22.885Z,40.00
2023-04-08T02:12:50.549Z,38.03
2023-04-08T02:15:17.909Z,36.70
2023-04-08T02:17:50.666Z,38.37
2023-04-08T02:20:24.607Z,40.40
2023-04-08T02:23:00.499Z,39.93
2023-04-08T02:25:30.639Z,38.03
2023-04-08T02:28:00.300Z,39.27
2023-04-08T02:30:28.420Z,39.73
2023-04-08T02:32:57.999Z,40.10
2023-04-08T02:35:25.991Z,38.73
2023-04-08T02:37:53.030Z,39.33
2023-04-08T02:40:31.778Z,38.57
2023-04-08T02:42:59.777Z,36.47
2023-04-08T02:45:41.036Z,37.30
2023-04-08T02:48:09.432Z,35.37
2023-04-08T02:50:36.860Z,31.63
2023-04-08T02:53:04.439Z,34.70
2023-04-08T02:55:33.608Z,37.40
2023-04-08T02:58:00.848Z,36.27
2023-04-08T03:00:28.040Z,35.53
2023-04-08T03:02:55.508Z,34.60
2023-04-08T03:05:23.053Z,32.97
2023-04-08T03:07:50.027Z,34.97
2023-04-08T03:10:16.979Z,32.33
2023-04-08T03:12:44.088Z,29.63
2023-04-08T03:15:11.111Z,29.10
2023-04-08T03:17:38.148Z,30.67
2023-04-08T03:20:06.157Z,31.33
2023-04-08T03:22:34.472Z,33.63
2023-04-08T03:25:01.906Z,31.77
2023-04-08T03:27:29.313Z,31.07
2023-04-08T03:29:57.935Z,31.23
2023-04-08T03:32:25.348Z,32.67
2023-04-08T03:34:52.504Z,29.87
2023-04-08T03:37:19.616Z,31.03
2023-04-08T03:39:46.742Z,30.13
2023-04-08T03:42:13.842Z,30.70
2023-04-08T03:44:40.942Z,30.00
2023-04-08T03:47:08.026Z,29.93
2023-04-08T03:49:35.115Z,28.50
2023-04-08T03:52:02.188Z,31.00
2023-04-08T03:54:29.215Z,29.90
2023-04-08T03:56:56.379Z,31.30
2023-04-08T03:59:23.471Z,30.50
2023-04-08T04:01:51.553Z,31.03
2023-04-08T04:04:18.852Z,31.73
2023-04-08T04:06:46.099Z,30.40
2023-04-08T04:09:13.153Z,31.20
2023-04-08T04:11:40.118Z,26.53
2023-04-08T04:14:07.228Z,29.43
2023-04-08T04:16:34.172Z,26.70
2023-04-08T04:19:01.361Z,28.50
2023-04-08T04:21:28.529Z,29.10
2023-04-08T04:23:55.820Z,28.30
2023-04-08T04:26:22.845Z,25.93
2023-04-08T04:28:50.186Z,26.63
2023-04-08T04:31:28.196Z,27.37
2023-04-08T04:33:55.691Z,27.20
2023-04-08T04:36:22.716Z,26.30
2023-04-08T04:38:50.819Z,27.53
2023-04-08T04:41:18.193Z,26.80
2023-04-08T04:43:45.838Z,28.40
2023-04-08T04:46:12.956Z,27.13
2023-04-08T04:48:40.795Z,26.10
2023-04-08T04:51:07.909Z,25.27
2023-04-08T04:53:35.517Z,25.00
2023-04-08T04:56:02.543Z,25.47
2023-04-08T04:58:30.801Z,23.20
2023-04-08T05:00:58.527Z,24.43
2023-04-08T05:03:25.933Z,24.37
2023-04-08T05:05:54.180Z,23.23
2023-04-08T05:08:21.900Z,22.73
2023-04-08T05:10:51.720Z,22.30
2023-04-08T05:13:19.236Z,24.27
2023-04-08T05:15:47.082Z,26.37
2023-04-08T05:18:14.351Z,25.60
2023-04-08T05:20:41.371Z,23.80
2023-04-08T05:23:08.799Z,25.50
2023-04-08T05:25:36.238Z,26.37
2023-04-08T05:28:04.030Z,24.17
2023-04-08T05:30:31.568Z,23.93
2023-04-08T05:33:00.660Z,23.33
2023-04-08T05:35:29.012Z,24.03
2023-04-08T05:37:56.407Z,23.07
2023-04-08T05:40:23.723Z,23.30
2023-04-08T05:42:50.859Z,22.43
2023-04-08T05:45:18.138Z,22.80
2023-04-08T05:47:45.243Z,22.33
2023-04-08T05:50:12.469Z,24.07
2023-04-08T05:52:44.162Z,20.83
2023-04-08T05:55:12.294Z,22.27
2023-04-08T05:57:39.644Z,20.30
2023-04-08T06:00:08.530Z,21.73
2023-04-08T06:02:38.317Z,19.47
2023-04-08T06:05:06.144Z,21.57
2023-04-08T06:07:33.878Z,20.77
2023-04-08T06:10:01.051Z,20.27
2023-04-08T06:12:28.224Z,19.20
2023-04-08T06:14:58.325Z,21.53
2023-04-08T06:17:25.664Z,21.10
2023-04-08T06:19:52.920Z,21.60
2023-04-08T06:22:20.011Z,18.53
2023-04-08T06:24:48.359Z,21.70
2023-04-08T06:27:16.564Z,19.43
2023-04-08T06:29:43.884Z,20.20
2023-04-08T06:32:11.510Z,20.00
2023-04-08T06:34:38.562Z,20.80
2023-04-08T06:37:06.545Z,20.57
2023-04-08T06:39:33.979Z,20.40
2023-04-08T06:42:01.652Z,19.10
2023-04-08T06:44:51.586Z,19.83
2023-04-08T06:47:18.565Z,19.33
2023-04-08T06:49:46.697Z,19.23
2023-04-08T06:52:14.862Z,18.70
2023-04-08T06:54:42.247Z,19.77
2023-04-08T06:57:09.492Z,17.83
2023-04-08T06:59:36.722Z,17.70
2023-04-08T07:02:04.097Z,14.63
2023-04-08T07:04:31.614Z,16.30
2023-04-08T07:06:58.712Z,15.03
2023-04-08T07:09:25.856Z,15.37
2023-04-08T07:11:52.809Z,14.80
2023-04-08T07:14:20.469Z,13.90
2023-04-08T07:16:47.707Z,15.68
2023-04-08T07:19:15.054Z,14.90
2023-04-08T07:21:42.203Z,15.25
2023-04-08T07:24:09.314Z,13.77
2023-04-08T07:26:39.025Z,13.98
2023-04-08T07:29:06.203Z,14.85
2023-04-08T07:31:33.491Z,12.90
2023-04-08T07:34:00.812Z,14.20
2023-04-08T07:36:28.407Z,15.10
2023-04-08T07:38:55.402Z,14.38
2023-04-08T07:41:22.447Z,14.38
2023-04-08T07:43:49.520Z,13.65
2023-04-08T07:46:16.610Z,13.15
2023-04-08T07:48:43.740Z,13.73
2023-04-08T07:51:11.736Z,13.43
2023-04-08T07:53:40.537Z,13.10
2023-04-08T07:56:14.927Z,13.80
2023-04-08T07:58:42.633Z,14.15
2023-04-08T08:01:21.327Z,13.65
2023-04-08T08:03:53.031Z,14.63
2023-04-08T08:06:20.960Z,15.63
2023-04-08T08:08:48.114Z,14.77
2023-04-08T08:11:15.199Z,14.68
2023-04-08T08:13:42.406Z,14.35
2023-04-08T08:16:11.702Z,14.40
2023-04-08T08:18:40.614Z,14.90
2023-04-08T08:21:08.614Z,15.07
2023-04-08T08:23:35.764Z,14.25
2023-04-08T08:26:04.674Z,14.35
2023-04-08T08:28:32.030Z,13.82
2023-04-08T08:30:59.421Z,13.90
2023-04-08T08:33:26.809Z,13.57
2023-04-08T08:35:54.149Z,14.38
2023-04-08T08:38:21.228Z,14.10
2023-04-08T08:40:55.034Z,14.40
2023-04-08T08:43:22.915Z,14.50
2023-04-08T08:45:50.079Z,15.90
2023-04-08T08:48:17.571Z,15.52
2023-04-08T08:50:45.720Z,15.18
2023-04-08T08:53:13.274Z,15.38
2023-04-08T08:56:05.679Z,16.08
2023-04-08T08:58:28.646Z,16.63
2023-04-08T09:00:56.016Z,17.45
2023-04-08T09:03:30.714Z,17.48
2023-04-08T09:06:00.472Z,16.88
2023-04-08T09:08:32.554Z,16.85
2023-04-08T09:11:12.557Z,16.90
2023-04-08T09:13:39.968Z,16.42
2023-04-08T09:16:12.253Z,15.85
2023-04-08T09:18:41.165Z,16.23
2023-04-08T09:21:08.206Z,14.90
2023-04-08T09:23:48.814Z,17.42
2023-04-08T09:26:24.328Z,16.48
2023-04-08T09:29:08.463Z,15.20
2023-04-08T09:31:41.849Z,15.60
2023-04-08T09:34:18.026Z,16.23
2023-04-08T09:36:45.848Z,16.67
2023-04-08T09:39:12.915Z,19.10
2023-04-08T09:41:41.162Z,22.17
2023-04-08T09:44:10.673Z,22.92
2023-04-08T09:47:04.258Z,22.67
2023-04-08T09:49:57.592Z,23.92
2023-04-08T09:52:33.612Z,23.95
2023-04-08T09:55:06.688Z,24.42
2023-04-08T09:57:55.802Z,23.60
2023-04-08T10:00:34.614Z,25.50
2023-04-08T10:03:32.940Z,24.08
2023-04-08T10:06:03.274Z,24.05
2023-04-08T10:08:33.109Z,23.50
2023-04-08T10:11:00.499Z,22.35
2023-04-08T10:13:28.735Z,21.95
2023-04-08T10:16:24.517Z,22.60
2023-04-08T10:18:55.841Z,20.48
2023-04-08T10:21:48.691Z,20.90
2023-04-08T10:24:15.759Z,19.60
2023-04-08T10:26:44.236Z,20.23
2023-04-08T10:29:19.856Z,19.50
2023-04-08T10:31:48.214Z,18.53
2023-04-08T10:34:26.825Z,19.80
2023-04-08T10:36:56.984Z,20.70
2023-04-08T10:39:25.741Z,21.30
2023-04-08T10:41:52.822Z,20.10
2023-04-08T10:44:24.667Z,19.67
2023-04-08T10:46:52.548Z,19.23
2023-04-08T10:49:20.115Z,20.47
2023-04-08T10:51:48.158Z,21.07
2023-04-08T10:54:17.480Z,19.90
2023-04-08T10:56:53.685Z,21.17
2023-04-08T10:59:32.896Z,23.03
2023-04-08T11:02:01.531Z,22.93
2023-04-08T11:04:29.120Z,22.57
2023-04-08T11:06:56.579Z,23.50
2023-04-08T11:09:23.548Z,23.57
2023-04-08T11:11:52.565Z,24.13
2023-04-08T11:14:22.023Z,24.87
2023-04-08T11:16:49.328Z,24.40
2023-04-08T11:19:16.805Z,24.57
2023-04-08T11:21:44.144Z,24.67
2023-04-08T11:24:12.364Z,26.17
2023-04-08T11:26:39.828Z,26.67
2023-04-08T11:29:12.716Z,24.10
2023-04-08T11:31:40.945Z,25.87
2023-04-08T11:34:08.784Z,25.60
2023-04-08T11:36:37.148Z,25.50
2023-04-08T11:39:08.451Z,24.40
2023-04-08T11:41:40.625Z,25.97
2023-04-08T11:44:08.458Z,25.33
2023-04-08T11:46:36.428Z,27.27
2023-04-08T11:49:08.742Z,27.10
2023-04-08T11:51:54.636Z,27.50
2023-04-08T11:54:32.173Z,26.70
2023-04-08T11:56:59.869Z,26.90
2023-04-08T11:59:29.235Z,28.20
2023-04-08T12:01:57.087Z,27.60
2023-04-08T12:04:24.360Z,28.27
2023-04-08T12:06:52.527Z,28.10
2023-04-08T12:09:19.653Z,27.90
2023-04-08T12:11:46.873Z,27.27
2023-04-08T12:14:14.376Z,27.23
2023-04-08T12:16:41.786Z,26.47
2023-04-08T12:19:09.004Z,26.83
2023-04-08T12:21:36.207Z,26.37
2023-04-08T12:24:03.342Z,25.23
2023-04-08T12:26:30.793Z,25.23
2023-04-08T12:28:58.256Z,24.57
2023-04-08T12:31:27.910Z,24.47
2023-04-08T12:33:55.146Z,22.97
2023-04-08T12:36:22.344Z,25.80
2023-04-08T12:38:49.682Z,23.80
2023-04-08T12:41:17.183Z,24.20
2023-04-08T12:43:44.370Z,24.87
2023-04-08T12:46:12.013Z,24.83
2023-04-08T12:48:39.251Z,23.60
2023-04-08T12:51:06.516Z,22.13
2023-04-08T12:53:33.594Z,23.07
2023-04-08T12:56:00.724Z,23.47
2023-04-08T12:58:27.753Z,23.80
2023-04-08T13:00:54.831Z,23.53
2023-04-08T13:03:22.438Z,24.63
2023-04-08T13:05:49.757Z,23.80
2023-04-08T13:08:17.743Z,24.10
2023-04-08T13:10:44.772Z,25.00
2023-04-08T13:13:14.275Z,25.13
2023-04-08T13:15:41.488Z,26.43
2023-04-08T13:18:08.880Z,26.03
2023-04-08T13:20:36.827Z,26.17
2023-04-08T13:23:03.927Z,27.02
2023-04-08T13:25:31.217Z,25.90
2023-04-08T13:27:58.223Z,25.87
2023-04-08T13:30:25.314Z,25.23
2023-04-08T13:32:52.448Z,25.23
2023-04-08T13:35:19.991Z,23.20
2023-04-08T13:37:47.003Z,23.33
2023-04-08T13:40:14.524Z,23.07
2023-04-08T13:42:41.783Z,24.63
2023-04-08T13:45:09.230Z,23.80
2023-04-08T13:47:38.092Z,21.50
2023-04-08T13:50:07.071Z,23.33
2023-04-08T13:52:34.390Z,22.70
2023-04-08T13:55:01.805Z,23.30
2023-04-08T13:57:28.934Z,24.63
2023-04-08T13:59:56.252Z,23.92
2023-04-08T14:02:23.502Z,23.90
2023-04-08T14:04:50.804Z,22.60
2023-04-08T14:07:19.279Z,22.63
2023-04-08T14:09:46.654Z,24.07
2023-04-08T14:12:13.765Z,22.95
2023-04-08T14:14:40.837Z,21.45
2023-04-08T14:17:07.996Z,22.65
2023-04-08T14:19:35.496Z,21.05
2023-04-08T14:22:03.244Z,21.67
2023-04-08T14:24:30.468Z,21.25
2023-04-08T14:26:57.970Z,21.58
2023-04-08T14:29:26.512Z,20.27
2023-04-08T14:31:54.583Z,20.95
2023-04-08T14:34:21.648Z,22.40
2023-04-08T14:36:48.757Z,21.55
2023-04-08T14:39:15.907Z,20.33
2023-04-08T14:41:42.928Z,21.02
2023-04-08T14:44:10.038Z,22.52
2023-04-08T14:46:37.564Z,21.17
2023-04-08T14:49:04.850Z,21.83
2023-04-08T14:51:31.895Z,22.73
2023-04-08T14:53:59.152Z,22.40
2023-04-08T14:56:26.498Z,23.63
2023-04-08T14:58:53.754Z,21.48
2023-04-08T15:01:21.067Z,20.95
2023-04-08T15:03:48.241Z,20.17
2023-04-08T15:06:17.883Z,22.20
2023-04-08T15:08:45.943Z,20.60
2023-04-08T15:11:13.167Z,21.25
2023-04-08T15:13:40.672Z,22.65
2023-04-08T15:16:07.800Z,22.40
2023-04-08T15:18:34.894Z,22.10
2023-04-08T15:21:01.941Z,21.80
2023-04-08T15:23:29.535Z,21.77
2023-04-08T15:25:59.703Z,22.13
2023-04-08T15:28:27.464Z,22.15
2023-04-08T15:30:55.045Z,22.42
2023-04-08T15:33:22.211Z,22.27
2023-04-08T15:35:49.690Z,22.40
2023-04-08T15:38:17.602Z,23.35
2023-04-08T15:40:46.763Z,21.17
2023-04-08T15:43:15.331Z,21.63
2023-04-08T15:45:44.405Z,22.00
2023-04-08T15:48:14.386Z,21.48
2023-04-08T15:50:42.145Z,22.73
2023-04-08T15:53:09.262Z,23.08
2023-04-08T15:55:42.594Z,22.38
2023-04-08T15:58:09.602Z,21.88
2023-04-08T16:00:36.851Z,22.67
2023-04-08T16:03:05.521Z,24.15
2023-04-08T16:05:35.892Z,23.08
2023-04-08T16:08:04.651Z,22.55
2023-04-08T16:10:31.883Z,22.80
2023-04-08T16:12:59.126Z,24.63
2023-04-08T16:15:26.704Z,24.40
2023-04-08T16:17:54.268Z,24.83
2023-04-08T16:20:21.806Z,24.40
2023-04-08T16:22:50.112Z,24.63
2023-04-08T16:25:17.516Z,26.10
2023-04-08T16:27:44.688Z,26.27
2023-04-08T16:30:12.104Z,26.23
2023-04-08T16:32:39.727Z,25.65
2023-04-08T16:35:07.195Z,25.83
2023-04-08T16:37:34.956Z,26.08
2023-04-08T16:40:03.174Z,27.50
2023-04-08T16:42:31.407Z,25.65
2023-04-08T16:44:59.502Z,26.50
2023-04-08T16:47:27.693Z,25.67
2023-04-08T16:49:55.138Z,27.95
2023-04-08T16:52:22.246Z,27.00
2023-04-08T16:54:49.330Z,26.88
2023-04-08T16:57:16.787Z,27.88
2023-04-08T16:59:43.888Z,28.33
2023-04-08T17:02:11.159Z,29.23
2023-04-08T17:04:38.410Z,26.63
2023-04-08T17:07:05.492Z,27.15
2023-04-08T17:09:32.645Z,28.38
2023-04-08T17:11:59.685Z,27.95
2023-04-08T17:14:27.783Z,27.55
2023-04-08T17:16:55.792Z,27.67
2023-04-08T17:19:22.970Z,27.88
2023-04-08T17:21:50.473Z,27.45
2023-04-08T17:24:17.685Z,28.95
2023-04-08T17:26:44.827Z,28.83
2023-04-08T17:29:12.290Z,28.60
2023-04-08T17:31:40.411Z,27.48
2023-04-08T17:34:07.979Z,29.95
2023-04-08T17:36:35.477Z,29.52
2023-04-08T17:39:02.538Z,29.90
2023-04-08T17:41:39.150Z,32.88
2023-04-08T17:44:07.009Z,34.92
2023-04-08T17:46:34.125Z,32.28
2023-04-08T17:49:01.172Z,33.55
2023-04-08T17:51:29.592Z,31.08
2023-04-08T17:53:56.667Z,30.20
2023-04-08T17:56:24.761Z,30.88
2023-04-08T17:58:51.874Z,30.38
2023-04-08T18:01:19.371Z,30.55
2023-04-08T18:03:46.635Z,30.40
2023-04-08T18:06:13.951Z,30.75
2023-04-08T18:08:41.020Z,30.73
2023-04-08T18:11:08.108Z,29.85
2023-04-08T18:13:35.114Z,30.60
2023-04-08T18:16:02.111Z,30.77
2023-04-08T18:18:29.072Z,32.03
2023-04-08T18:20:56.333Z,31.02
2023-04-08T18:23:23.496Z,31.02
2023-04-08T18:25:50.821Z,30.05
2023-04-08T18:28:17.896Z,29.88
2023-04-08T18:30:44.898Z,30.13
2023-04-08T18:33:12.037Z,30.40
2023-04-08T18:35:39.047Z,32.65
2023-04-08T18:38:06.177Z,30.75
2023-04-08T18:40:33.769Z,31.38
2023-04-08T18:43:03.557Z,31.05
2023-04-08T18:45:30.925Z,32.15
2023-04-08T18:47:58.103Z,31.00
2023-04-08T18:50:25.369Z,30.67
2023-04-08T18:52:52.984Z,30.63
2023-04-08T18:55:20.016Z,29.45
2023-04-08T18:57:47.017Z,30.33
2023-04-08T19:00:14.259Z,30.75
2023-04-08T19:02:41.856Z,32.30
2023-04-08T19:05:09.313Z,30.73
2023-04-08T19:07:36.572Z,31.65
2023-04-08T19:10:03.835Z,30.65
2023-04-08T19:12:31.537Z,31.55
2023-04-08T19:14:59.442Z,31.10
2023-04-08T19:17:26.596Z,31.25
2023-04-08T19:19:53.776Z,30.42
2023-04-08T19:22:20.835Z,31.73
2023-04-08T19:24:47.887Z,30.10
2023-04-08T19:27:14.925Z,29.42
2023-04-08T19:29:42.063Z,31.50
2023-04-08T19:32:09.640Z,30.55
2023-04-08T19:34:38.409Z,31.55
2023-04-08T19:37:06.681Z,32.35
2023-04-08T19:39:33.793Z,31.65
2023-04-08T19:42:00.783Z,31.48
2023-04-08T19:44:27.818Z,30.77
2023-04-08T19:46:57.584Z,31.25
2023-04-08T19:49:25.449Z,31.08
2023-04-08T19:51:52.710Z,32.17
2023-04-08T19:54:19.755Z,32.53
2023-04-08T19:56:47.420Z,32.15
2023-04-08T19:59:14.622Z,31.05
2023-04-08T20:01:41.720Z,31.10
2023-04-08T20:04:08.944Z,32.05
2023-04-08T20:06:36.737Z,33.45
2023-04-08T20:09:05.774Z,32.15
2023-04-08T20:11:36.141Z,32.88
2023-04-08T20:14:04.252Z,32.78
2023-04-08T20:16:32.078Z,34.63
2023-04-08T20:18:59.227Z,33.10
2023-04-08T20:21:26.801Z,33.30
2023-04-08T20:23:54.092Z,33.05
2023-04-08T20:26:21.649Z,33.28
2023-04-08T20:28:49.692Z,33.05
2023-04-08T20:31:16.968Z,32.25
2023-04-08T20:33:45.410Z,33.35
2023-04-08T20:36:13.392Z,31.67
2023-04-08T20:38:40.881Z,34.40
2023-04-08T20:41:07.919Z,35.28
2023-04-08T20:43:34.922Z,33.05
2023-04-08T20:46:02.030Z,32.28
2023-04-08T20:48:29.624Z,32.22
2023-04-08T20:50:57.613Z,33.35
2023-04-08T20:53:26.376Z,34.10
2023-04-08T20:55:53.792Z,35.55
2023-04-08T20:58:20.845Z,35.00
2023-04-08T21:00:48.079Z,33.78
2023-04-08T21:03:15.417Z,34.38
2023-04-08T21:05:42.542Z,35.97
2023-04-08T21:08:09.983Z,36.08
2023-04-08T21:10:37.065Z,35.17
2023-04-08T21:13:04.276Z,35.70
2023-04-08T21:15:31.673Z,35.67
2023-04-08T21:17:58.692Z,34.92
2023-04-08T21:20:25.981Z,33.92
2023-04-08T21:22:53.982Z,34.92
2023-04-08T21:25:21.073Z,35.70
2023-04-08T21:27:48.285Z,35.80
2023-04-08T21:30:16.910Z,35.50
2023-04-08T21:32:44.145Z,35.58
2023-04-08T21:35:11.370Z,36.17
2023-04-08T21:37:38.413Z,36.38
2023-04-08T21:40:06.184Z,35.33
2023-04-08T21:42:33.478Z,35.67
2023-04-08T21:45:00.808Z,35.13
2023-04-08T21:47:27.978Z,35.30
2023-04-08T21:49:56.046Z,34.55
2023-04-08T21:52:23.265Z,36.13
2023-04-08T21:54:51.671Z,36.33
2023-04-08T21:57:19.273Z,37.63
2023-04-08T21:59:46.345Z,37.17
2023-04-08T22:02:13.420Z,37.67
2023-04-08T22:04:40.738Z,38.00
2023-04-08T22:07:07.885Z,37.43
2023-04-08T22:09:35.098Z,36.73
2023-04-08T22:12:02.682Z,39.17
2023-04-08T22:14:29.940Z,46.87
2023-04-08T22:16:57.064Z,48.60
2023-04-08T22:19:24.283Z,51.57
2023-04-08T22:21:51.612Z,56.23
2023-04-08T22:24:19.378Z,58.50
2023-04-08T22:26:46.660Z,61.93
2023-04-08T22:29:13.778Z,64.43
2023-04-08T22:31:40.921Z,64.27
2023-04-08T22:34:08.003Z,68.03
2023-04-08T22:36:35.088Z,70.33
2023-04-08T22:39:02.214Z,72.93
2023-04-08T22:41:29.303Z,70.27
2023-04-08T22:43:56.688Z,70.10
2023-04-08T22:46:23.928Z,74.07
2023-04-08T22:48:51.174Z,69.80
2023-04-08T22:51:18.780Z,73.50
2023-04-08T22:53:45.691Z,69.07
2023-04-08T22:56:12.720Z,71.43
2023-04-08T22:58:39.838Z,69.50
2023-04-08T23:01:17.665Z,67.93
2023-04-08T23:03:45.038Z,67.93
2023-04-08T23:06:12.124Z,67.83
2023-04-08T23:08:39.433Z,70.23
2023-04-08T23:11:06.864Z,67.93
2023-04-08T23:13:34.063Z,65.37
2023-04-08T23:16:01.519Z,68.60
2023-04-08T23:18:28.750Z,66.93
2023-04-08T23:20:57.024Z,66.13
2023-04-08T23:23:25.440Z,62.23
2023-04-08T23:25:54.951Z,62.17
2023-04-08T23:28:22.897Z,60.03
2023-04-08T23:30:49.943Z,62.20
2023-04-08T23:33:17.079Z,60.80
2023-04-08T23:35:44.277Z,59.17
2023-04-08T23:38:11.386Z,61.10
2023-04-08T23:40:38.594Z,59.57
2023-04-08T23:43:05.795Z,58.60
2023-04-08T23:45:32.750Z,57.77
2023-04-08T23:47:59.867Z,58.03
2023-04-08T23:50:26.867Z,57.37
2023-04-08T23:52:54.088Z,57.43
2023-04-08T23:55:21.241Z,59.40
2023-04-08T23:57:50.683Z,55.73
